createdAt,value
2018-04-24T00:00:00.643Z,99.90
2018-04-24T00:02:28.991Z,99.90
2018-04-24T00:04:57.421Z,99.90
2018-04-24T00:07:26.622Z,99.90
2018-04-24T00:09:55.000Z,99.90
2018-04-24T00:12:22.437Z,99.90
2018-04-24T00:14:49.979Z,99.90
2018-04-24T00:17:17.604Z,99.90
2018-04-24T00:19:45.117Z,99.90
2018-04-24T00:22:13.705Z,99.90
2018-04-24T00:24:41.235Z,99.90
2018-04-24T00:27:09.588Z,99.90
2018-04-24T00:29:37.112Z,99.90
2018-04-24T00:32:06.672Z,99.90
2018-04-24T00:34:35.911Z,99.90
2018-04-24T00:37:03.469Z,99.90
2018-04-24T00:39:31.828Z,99.90
2018-04-24T00:42:02.338Z,99.90
2018-04-24T00:44:29.848Z,99.90
2018-04-24T00:46:58.366Z,99.90
2018-04-24T00:49:26.822Z,99.90
2018-04-24T00:51:54.370Z,99.90
2018-04-24T00:54:21.881Z,99.90
2018-04-24T00:56:49.447Z,99.90
2018-04-24T00:59:17.002Z,99.90
2018-04-24T01:01:44.517Z,99.90
2018-04-24T01:04:12.203Z,99.90
2018-04-24T01:06:40.783Z,99.90
2018-04-24T01:09:08.422Z,99.90
2018-04-24T01:11:36.704Z,99.90
2018-04-24T01:14:04.986Z,99.90
2018-04-24T01:16:34.197Z,99.90
2018-04-24T01:19:03.399Z,99.90
2018-04-24T01:21:32.602Z,99.90
2018-04-24T01:24:00.894Z,99.90
2018-04-24T01:26:28.426Z,99.90
2018-04-24T01:28:56.063Z,99.90
2018-04-24T01:31:23.589Z,99.90
2018-04-24T01:33:51.155Z,99.90
2018-04-24T01:36:18.693Z,99.90
2018-04-24T01:38:46.962Z,99.90
2018-04-24T01:41:15.432Z,99.90
2018-04-24T01:44:01.562Z,99.90
2018-04-24T01:49:10.572Z,99.90
2018-04-24T01:51:38.187Z,99.90
2018-04-24T01:54:05.695Z,99.90
2018-04-24T01:56:33.204Z,99.90
2018-04-24T01:59:01.686Z,99.90
2018-04-24T02:01:29.310Z,99.90
2018-04-24T02:03:57.754Z,99.90
2018-04-24T02:06:25.350Z,99.90
2018-04-24T02:08:53.779Z,99.90
2018-04-24T02:11:22.067Z,99.90
2018-04-24T02:13:49.575Z,99.90
2018-04-24T02:16:17.953Z,99.90
2018-04-24T02:18:46.367Z,99.90
2018-04-24T02:21:13.955Z,99.90
2018-04-24T02:23:42.240Z,99.90
2018-04-24T02:26:10.522Z,99.90
2018-04-24T02:28:39.875Z,99.90
2018-04-24T02:31:08.353Z,99.90
2018-04-24T02:33:35.875Z,99.90
2018-04-24T02:36:04.185Z,99.90
2018-04-24T02:38:32.659Z,99.90
2018-04-24T02:41:00.305Z,99.90
2018-04-24T02:43:29.533Z,99.90
2018-04-24T02:45:57.924Z,99.90
2018-04-24T02:48:25.449Z,99.90
2018-04-24T02:50:55.365Z,99.90
2018-04-24T02:53:22.925Z,99.90
2018-04-24T02:55:50.466Z,99.90
2018-04-24T02:58:18.999Z,99.90
2018-04-24T03:00:46.605Z,99.90
2018-04-24T03:03:16.087Z,99.90
2018-04-24T03:05:43.749Z,99.90
2018-04-24T03:08:13.317Z,99.90
2018-04-24T03:10:42.789Z,99.90
2018-04-24T03:13:10.380Z,99.90
2018-04-24T03:15:39.563Z,99.90
2018-04-24T03:18:07.103Z,99.90
2018-04-24T03:20:34.611Z,99.90
2018-04-24T03:23:02.142Z,99.90
2018-04-24T03:25:29.748Z,99.90
2018-04-24T03:27:58.136Z,99.90
2018-04-24T03:30:26.643Z,99.90
2018-04-24T03:32:54.938Z,99.90
2018-04-24T03:35:22.448Z,99.90
2018-04-24T03:37:50.950Z,99.90
2018-04-24T03:40:18.445Z,99.90
2018-04-24T03:45:47.249Z,99.90
2018-04-24T03:48:14.804Z,99.90
2018-04-24T03:50:42.496Z,99.90
2018-04-24T03:53:10.163Z,99.90
2018-04-24T03:55:37.676Z,99.90
2018-04-24T03:58:05.250Z,99.90
2018-04-24T04:00:32.849Z,99.90
2018-04-24T04:03:00.370Z,99.90
2018-04-24T04:05:27.984Z,99.90
2018-04-24T04:07:56.368Z,99.90
2018-04-24T04:10:23.890Z,99.90
2018-04-24T04:12:51.448Z,99.90
2018-04-24T04:15:22.936Z,99.90
2018-04-24T04:18:02.197Z,99.90
2018-04-24T04:20:42.743Z,99.90
2018-04-24T04:23:22.203Z,99.90
2018-04-24T04:25:49.713Z,99.90
2018-04-24T04:28:18.001Z,99.90
2018-04-24T04:30:46.312Z,99.90
2018-04-24T04:33:13.908Z,99.90
2018-04-24T04:35:42.258Z,99.90
2018-04-24T04:38:10.701Z,99.90
2018-04-24T04:40:38.227Z,99.90
2018-04-24T04:43:05.843Z,99.90
2018-04-24T04:45:52.125Z,99.90
2018-04-24T04:48:19.688Z,99.90
2018-04-24T04:53:29.154Z,99.90
2018-04-24T04:55:56.660Z,99.90
2018-04-24T04:58:24.206Z,99.90
2018-04-24T05:00:51.852Z,99.90
2018-04-24T05:03:20.378Z,99.90
2018-04-24T05:05:48.974Z,99.90
2018-04-24T05:08:16.596Z,99.90
2018-04-24T05:10:44.950Z,99.90
2018-04-24T05:13:13.241Z,99.90
2018-04-24T05:15:43.204Z,99.90
2018-04-24T05:18:10.761Z,99.90
2018-04-24T05:20:39.197Z,99.90
2018-04-24T05:23:07.714Z,99.90
2018-04-24T05:25:36.250Z,99.90
2018-04-24T05:28:03.744Z,99.90
2018-04-24T05:30:31.386Z,99.90
2018-04-24T05:32:58.893Z,99.90
2018-04-24T05:35:27.216Z,99.90
2018-04-24T05:37:54.733Z,99.90
2018-04-24T05:40:22.246Z,99.90
2018-04-24T05:42:49.924Z,99.90
2018-04-24T05:45:17.513Z,99.90
2018-04-24T05:47:45.901Z,99.90
2018-04-24T05:50:13.423Z,99.90
2018-04-24T05:52:41.852Z,99.90
2018-04-24T05:55:09.503Z,99.90
2018-04-24T05:57:37.798Z,99.90
2018-04-24T06:00:05.326Z,99.90
2018-04-24T06:02:33.772Z,99.90
2018-04-24T06:05:01.405Z,99.90
2018-04-24T06:07:28.936Z,99.90
2018-04-24T06:09:56.452Z,99.90
2018-04-24T06:12:26.511Z,99.90
2018-04-24T06:14:54.105Z,99.90
2018-04-24T06:17:21.658Z,99.90
2018-04-24T06:19:49.210Z,99.90
2018-04-24T06:22:16.723Z,99.90
2018-04-24T06:24:44.221Z,98.90
2018-04-24T06:27:11.847Z,97.70
2018-04-24T06:29:40.129Z,99.90
2018-04-24T06:32:07.753Z,99.90
2018-04-24T06:34:36.183Z,99.40
2018-04-24T06:37:03.766Z,99.90
2018-04-24T06:39:32.242Z,99.90
2018-04-24T06:42:00.522Z,99.90
2018-04-24T06:44:28.832Z,99.90
2018-04-24T06:46:56.427Z,99.90
2018-04-24T06:49:23.983Z,99.90
2018-04-24T06:51:51.499Z,98.80
2018-04-24T06:54:20.709Z,99.90
2018-04-24T06:56:50.197Z,99.90
2018-04-24T06:59:17.745Z,99.90
2018-04-24T07:01:45.319Z,99.90
2018-04-24T07:04:13.790Z,99.90
2018-04-24T07:07:01.035Z,99.90
2018-04-24T07:09:29.658Z,99.90
2018-04-24T07:11:57.183Z,99.90
2018-04-24T07:17:23.177Z,99.90
2018-04-24T07:19:51.870Z,99.90
2018-04-24T07:22:19.488Z,99.90
2018-04-24T07:24:46.902Z,99.90
2018-04-24T07:27:14.531Z,99.90
2018-04-24T07:29:42.011Z,99.90
2018-04-24T07:32:10.610Z,99.90
2018-04-24T07:34:40.043Z,99.90
2018-04-24T07:37:07.628Z,99.90
2018-04-24T07:39:36.055Z,99.00
2018-04-24T07:42:03.614Z,97.70
2018-04-24T07:44:31.266Z,96.70
2018-04-24T07:46:59.724Z,97.70
2018-04-24T07:49:27.244Z,99.90
2018-04-24T07:51:55.529Z,99.90
2018-04-24T07:54:23.053Z,99.90
2018-04-24T07:56:50.623Z,99.20
2018-04-24T07:59:36.044Z,98.60
2018-04-24T08:02:04.496Z,98.10
2018-04-24T08:04:32.042Z,98.70
2018-04-24T08:10:02.289Z,99.90
2018-04-24T08:12:29.901Z,98.60
2018-04-24T08:14:57.503Z,99.50
2018-04-24T08:17:25.074Z,99.90
2018-04-24T08:19:52.702Z,99.90
2018-04-24T08:22:20.263Z,99.50
2018-04-24T08:24:47.800Z,98.00
2018-04-24T08:27:15.568Z,99.90
2018-04-24T08:29:43.101Z,98.80
2018-04-24T08:32:10.684Z,98.40
2018-04-24T08:34:38.267Z,98.50
2018-04-24T08:37:05.771Z,98.70
2018-04-24T08:39:33.267Z,98.90
2018-04-24T08:42:00.780Z,98.60
2018-04-24T08:44:30.308Z,99.10
2018-04-24T08:46:58.834Z,98.00
2018-04-24T08:49:26.997Z,99.50
2018-04-24T08:51:54.507Z,97.90
2018-04-24T08:54:22.010Z,96.50
2018-04-24T08:56:50.277Z,98.30
2018-04-24T08:59:17.908Z,98.60
2018-04-24T09:01:45.401Z,98.60
2018-04-24T09:04:12.993Z,96.00
2018-04-24T09:06:40.570Z,96.60
2018-04-24T09:09:08.098Z,97.70
2018-04-24T09:11:35.653Z,96.10
2018-04-24T09:14:03.202Z,94.00
2018-04-24T09:16:32.943Z,94.60
2018-04-24T09:19:00.457Z,95.30
2018-04-24T09:21:28.103Z,93.30
2018-04-24T09:23:55.653Z,93.20
2018-04-24T09:26:24.820Z,92.40
2018-04-24T09:28:52.365Z,92.40
2018-04-24T09:31:19.901Z,92.00
2018-04-24T09:33:47.529Z,92.90
2018-04-24T09:36:15.997Z,90.90
2018-04-24T09:38:43.537Z,96.00
2018-04-24T09:41:12.082Z,95.30
2018-04-24T09:43:40.414Z,94.40
2018-04-24T09:46:08.050Z,94.40
2018-04-24T09:48:36.713Z,96.60
2018-04-24T09:51:04.250Z,92.20
2018-04-24T09:53:31.818Z,94.70
2018-04-24T09:55:59.391Z,93.20
2018-04-24T09:58:26.981Z,94.40
2018-04-24T10:00:54.579Z,93.10
2018-04-24T10:03:23.058Z,92.20
2018-04-24T10:05:50.637Z,93.90
2018-04-24T10:08:18.174Z,92.90
2018-04-24T10:10:46.260Z,96.70
2018-04-24T10:13:13.828Z,91.10
2018-04-24T10:15:41.943Z,94.50
2018-04-24T10:18:09.460Z,92.50
2018-04-24T10:20:36.983Z,93.50
2018-04-24T10:23:04.502Z,94.30
2018-04-24T10:25:32.039Z,93.00
2018-04-24T10:28:00.316Z,92.30
2018-04-24T10:30:29.613Z,91.10
2018-04-24T10:32:57.918Z,93.00
2018-04-24T10:35:45.023Z,93.00
2018-04-24T10:38:17.045Z,90.90
2018-04-24T10:43:27.681Z,92.60
2018-04-24T10:45:55.254Z,93.30
2018-04-24T10:48:22.889Z,91.00
2018-04-24T10:50:51.234Z,92.80
2018-04-24T10:53:18.745Z,92.80
2018-04-24T10:55:47.053Z,94.70
2018-04-24T10:58:14.558Z,94.70
2018-04-24T11:00:42.132Z,94.10
2018-04-24T11:03:09.763Z,91.90
2018-04-24T11:05:37.271Z,94.20
2018-04-24T11:08:04.885Z,93.80
2018-04-24T11:10:32.423Z,94.40
2018-04-24T11:12:59.947Z,95.30
2018-04-24T11:15:27.470Z,94.00
2018-04-24T11:17:54.999Z,93.00
2018-04-24T11:20:23.309Z,94.10
2018-04-24T11:22:50.900Z,94.30
2018-04-24T11:25:18.446Z,93.80
2018-04-24T11:27:47.723Z,93.50
2018-04-24T11:30:16.973Z,92.40
2018-04-24T11:32:45.485Z,92.60
2018-04-24T11:35:13.078Z,91.40
2018-04-24T11:37:46.192Z,87.80
2018-04-24T11:40:14.713Z,93.00
2018-04-24T11:42:43.146Z,87.80
2018-04-24T11:45:10.698Z,93.90
2018-04-24T11:47:39.111Z,89.60
2018-04-24T11:50:08.634Z,89.80
2018-04-24T11:52:36.139Z,91.10
2018-04-24T11:55:03.692Z,90.00
2018-04-24T11:57:32.156Z,86.30
2018-04-24T11:59:59.758Z,88.30
2018-04-24T12:02:27.368Z,88.90
2018-04-24T12:04:54.925Z,88.40
2018-04-24T12:07:22.458Z,90.70
2018-04-24T12:09:49.978Z,88.10
2018-04-24T12:12:18.396Z,92.90
2018-04-24T12:14:46.052Z,94.50
2018-04-24T12:17:13.617Z,91.10
2018-04-24T12:19:41.181Z,91.40
2018-04-24T12:22:08.850Z,90.40
2018-04-24T12:24:36.515Z,90.40
2018-04-24T12:30:03.263Z,86.00
2018-04-24T12:32:30.795Z,88.30
2018-04-24T12:34:58.372Z,88.00
2018-04-24T12:37:26.842Z,88.60
2018-04-24T12:39:54.436Z,86.10
2018-04-24T12:42:22.086Z,86.00
2018-04-24T12:44:49.745Z,89.80
2018-04-24T12:47:17.297Z,87.50
2018-04-24T12:49:44.929Z,81.90
2018-04-24T12:52:12.518Z,87.10
2018-04-24T12:54:40.078Z,89.40
2018-04-24T12:57:07.739Z,85.70
2018-04-24T12:59:35.278Z,90.20
2018-04-24T13:02:02.834Z,84.90
2018-04-24T13:04:31.401Z,87.00
2018-04-24T13:06:58.912Z,86.50
2018-04-24T13:09:27.314Z,90.60
2018-04-24T13:11:54.887Z,90.50
2018-04-24T13:14:22.480Z,88.40
2018-04-24T13:16:50.829Z,83.60
2018-04-24T13:19:18.367Z,83.80
2018-04-24T13:21:45.963Z,83.20
2018-04-24T13:24:13.545Z,85.90
2018-04-24T13:26:41.064Z,82.60
2018-04-24T13:29:09.396Z,87.30
2018-04-24T13:31:38.995Z,87.30
2018-04-24T13:34:06.581Z,82.70
2018-04-24T13:36:34.150Z,88.20
2018-04-24T13:39:03.517Z,82.90
2018-04-24T13:41:31.167Z,83.90
2018-04-24T13:43:59.467Z,85.30
2018-04-24T13:46:26.992Z,85.50
2018-04-24T13:48:54.566Z,83.30
2018-04-24T13:51:22.030Z,79.30
2018-04-24T13:53:51.598Z,77.00
2018-04-24T13:56:20.030Z,84.60
2018-04-24T13:58:48.345Z,81.60
2018-04-24T14:01:16.899Z,81.60
2018-04-24T14:03:46.127Z,78.20
2018-04-24T14:06:13.727Z,78.00
2018-04-24T14:08:41.337Z,77.10
2018-04-24T14:11:09.618Z,83.10
2018-04-24T14:13:39.782Z,75.40
2018-04-24T14:16:25.226Z,75.40
2018-04-24T14:21:32.926Z,77.70
2018-04-24T14:24:00.431Z,81.40
2018-04-24T14:26:29.957Z,75.60
2018-04-24T14:28:58.478Z,75.40
2018-04-24T14:31:26.932Z,75.20
2018-04-24T14:33:55.417Z,74.10
2018-04-24T14:36:23.001Z,77.70
2018-04-24T14:38:50.567Z,74.00
2018-04-24T14:41:18.107Z,74.30
2018-04-24T14:43:45.762Z,74.10
2018-04-24T14:46:13.285Z,72.30
2018-04-24T14:48:41.546Z,71.90
2018-04-24T14:51:09.142Z,71.80
2018-04-24T14:53:36.757Z,72.30
2018-04-24T14:56:04.266Z,69.60
2018-04-24T14:58:32.566Z,74.30
2018-04-24T15:01:00.643Z,74.40
2018-04-24T15:03:28.157Z,69.70
2018-04-24T15:05:55.775Z,68.10
2018-04-24T15:08:24.234Z,67.70
2018-04-24T15:10:52.609Z,68.00
2018-04-24T15:13:20.186Z,67.50
2018-04-24T15:15:49.620Z,68.10
2018-04-24T15:18:19.048Z,71.50
2018-04-24T15:20:46.616Z,66.40
2018-04-24T15:23:14.198Z,66.40
2018-04-24T15:25:41.760Z,69.10
2018-04-24T15:28:10.280Z,70.50
2018-04-24T15:30:37.866Z,70.00
2018-04-24T15:33:05.467Z,68.70
2018-04-24T15:35:33.113Z,70.60
2018-04-24T15:38:00.654Z,70.10
2018-04-24T15:40:28.269Z,68.40
2018-04-24T15:42:59.709Z,69.20
2018-04-24T15:45:27.245Z,68.10
2018-04-24T15:47:54.845Z,67.50
2018-04-24T15:50:23.273Z,64.90
2018-04-24T15:52:51.773Z,65.90
2018-04-24T15:55:19.299Z,66.30
2018-04-24T15:57:46.831Z,67.20
2018-04-24T16:00:17.321Z,65.90
2018-04-24T16:02:44.919Z,66.70
2018-04-24T16:05:12.427Z,67.30
2018-04-24T16:07:39.995Z,65.80
2018-04-24T16:10:07.559Z,65.30
2018-04-24T16:12:35.076Z,66.60
2018-04-24T16:15:02.577Z,65.60
2018-04-24T16:17:30.141Z,62.80
2018-04-24T16:19:58.583Z,65.10
2018-04-24T16:22:27.049Z,64.60
2018-04-24T16:24:54.605Z,65.40
2018-04-24T16:27:22.894Z,63.00
2018-04-24T16:29:51.429Z,62.90
2018-04-24T16:32:19.185Z,65.20
2018-04-24T16:34:46.733Z,62.60
2018-04-24T16:37:14.354Z,63.90
2018-04-24T16:39:41.841Z,65.60
2018-04-24T16:42:09.348Z,63.60
2018-04-24T16:44:36.912Z,64.20
2018-04-24T16:47:04.504Z,63.40
2018-04-24T16:49:32.031Z,66.70
2018-04-24T16:51:59.527Z,62.30
2018-04-24T16:54:27.096Z,63.50
2018-04-24T16:56:55.508Z,63.30
2018-04-24T16:59:23.020Z,63.00
2018-04-24T17:01:50.664Z,62.80
2018-04-24T17:04:18.169Z,62.40
2018-04-24T17:06:45.657Z,63.40
2018-04-24T17:09:13.219Z,62.20
2018-04-24T17:11:41.503Z,63.80
2018-04-24T17:14:09.909Z,63.80
2018-04-24T17:16:37.447Z,63.90
2018-04-24T17:19:05.806Z,64.10
2018-04-24T17:21:33.321Z,64.10
2018-04-24T17:24:00.830Z,64.50
2018-04-24T17:26:28.388Z,64.50
2018-04-24T17:28:57.910Z,64.10
2018-04-24T17:31:25.414Z,63.50
2018-04-24T17:33:52.931Z,64.60
2018-04-24T17:36:20.437Z,64.80
2018-04-24T17:38:48.017Z,64.80
2018-04-24T17:41:17.427Z,65.10
2018-04-24T17:43:44.938Z,64.30
2018-04-24T17:46:12.472Z,64.00
2018-04-24T17:48:40.033Z,64.70
2018-04-24T17:51:09.477Z,64.10
2018-04-24T17:53:37.666Z,64.20
2018-04-24T17:56:05.181Z,65.70
2018-04-24T17:58:32.683Z,66.10
2018-04-24T18:01:00.279Z,68.20
2018-04-24T18:03:28.877Z,67.60
2018-04-24T18:05:56.406Z,68.50
2018-04-24T18:08:24.882Z,70.70
2018-04-24T18:10:52.406Z,72.10
2018-04-24T18:13:19.910Z,73.20
2018-04-24T18:15:47.455Z,75.00
2018-04-24T18:18:15.049Z,74.30
2018-04-24T18:20:44.606Z,74.60
2018-04-24T18:23:13.097Z,74.30
2018-04-24T18:25:40.708Z,75.80
2018-04-24T18:28:08.263Z,77.80
2018-04-24T18:30:35.785Z,79.80
2018-04-24T18:33:03.300Z,79.70
2018-04-24T18:35:30.866Z,81.50
2018-04-24T18:37:59.286Z,82.00
2018-04-24T18:40:27.728Z,81.70
2018-04-24T18:42:56.444Z,83.40
2018-04-24T18:45:24.880Z,83.20
2018-04-24T18:47:52.398Z,83.30
2018-04-24T18:50:19.968Z,83.90
2018-04-24T18:52:47.590Z,85.80
2018-04-24T18:55:15.991Z,89.20
2018-04-24T18:58:03.303Z,90.10
2018-04-24T19:03:30.820Z,90.00
2018-04-24T19:05:59.240Z,90.40
2018-04-24T19:08:26.817Z,90.30
2018-04-24T19:10:54.344Z,90.70
2018-04-24T19:13:21.935Z,90.30
2018-04-24T19:15:52.794Z,90.50
2018-04-24T19:18:26.642Z,90.60
2018-04-24T19:20:54.154Z,90.60
2018-04-24T19:23:21.655Z,90.60
2018-04-24T19:25:49.205Z,90.00
2018-04-24T19:28:16.750Z,90.10
2018-04-24T19:30:44.347Z,87.50
2018-04-24T19:33:11.928Z,87.70
2018-04-24T19:35:41.531Z,88.20
2018-04-24T19:38:09.027Z,88.70
2018-04-24T19:40:42.258Z,89.20
2018-04-24T19:43:10.540Z,89.30
2018-04-24T19:45:39.760Z,90.10
2018-04-24T19:48:08.207Z,90.00
2018-04-24T19:50:36.738Z,88.30
2018-04-24T19:53:04.264Z,89.10
2018-04-24T19:55:31.777Z,87.50
2018-04-24T19:58:00.274Z,87.30
2018-04-24T20:00:27.889Z,87.10
2018-04-24T20:02:58.124Z,86.20
2018-04-24T20:05:26.589Z,86.00
2018-04-24T20:07:55.090Z,86.60
2018-04-24T20:10:23.399Z,87.60
2018-04-24T20:12:51.056Z,87.60
2018-04-24T20:15:20.530Z,88.20
2018-04-24T20:17:48.144Z,90.00
2018-04-24T20:20:15.770Z,89.90
2018-04-24T20:22:43.363Z,90.00
2018-04-24T20:25:10.894Z,89.70
2018-04-24T20:27:38.477Z,90.00
2018-04-24T20:30:08.606Z,89.90
2018-04-24T20:32:36.101Z,89.90
2018-04-24T20:35:04.711Z,89.80
2018-04-24T20:37:32.236Z,88.90
2018-04-24T20:40:01.725Z,89.30
2018-04-24T20:42:30.984Z,89.70
2018-04-24T20:44:58.516Z,89.80
2018-04-24T20:47:26.112Z,89.70
2018-04-24T20:49:53.728Z,88.90
2018-04-24T20:52:21.377Z,88.90
2018-04-24T20:54:48.892Z,89.80
2018-04-24T20:57:16.483Z,89.70
2018-04-24T20:59:44.917Z,89.80
2018-04-24T21:02:12.412Z,89.80
2018-04-24T21:04:40.030Z,90.30
2018-04-24T21:07:08.538Z,90.30
2018-04-24T21:09:36.958Z,90.50
2018-04-24T21:12:06.412Z,90.60
2018-04-24T21:14:34.867Z,90.50
2018-04-24T21:17:03.449Z,90.80
2018-04-24T21:19:30.975Z,91.00
2018-04-24T21:21:59.403Z,90.80
2018-04-24T21:24:27.891Z,91.00
2018-04-24T21:26:55.454Z,90.80
2018-04-24T21:29:22.979Z,90.40
2018-04-24T21:31:50.472Z,90.40
2018-04-24T21:34:17.963Z,90.00
2018-04-24T21:36:45.555Z,90.40
2018-04-24T21:39:13.070Z,90.40
2018-04-24T21:41:40.630Z,90.90
2018-04-24T21:44:08.120Z,90.70
2018-04-24T21:46:36.370Z,91.50
2018-04-24T21:49:03.985Z,91.50
2018-04-24T21:51:32.411Z,91.60
2018-04-24T21:53:59.977Z,91.90
2018-04-24T21:56:27.508Z,92.10
2018-04-24T21:58:55.016Z,92.00
2018-04-24T22:01:23.340Z,92.20
2018-04-24T22:03:50.868Z,92.20
2018-04-24T22:06:18.435Z,91.90
2018-04-24T22:08:47.644Z,92.00
2018-04-24T22:11:16.896Z,91.70
2018-04-24T22:13:44.424Z,91.70
2018-04-24T22:16:13.750Z,92.00
2018-04-24T22:18:42.237Z,92.10
2018-04-24T22:21:09.866Z,92.00
2018-04-24T22:23:37.400Z,91.90
2018-04-24T22:26:04.934Z,92.10
2018-04-24T22:28:32.458Z,91.90
2018-04-24T22:31:01.933Z,92.00
2018-04-24T22:33:29.441Z,91.90
2018-04-24T22:35:56.961Z,91.80
2018-04-24T22:38:24.519Z,91.80
2018-04-24T22:40:52.018Z,92.30
2018-04-24T22:43:19.602Z,92.70
2018-04-24T22:45:49.854Z,93.30
2018-04-24T22:48:18.293Z,93.20
2018-04-24T22:50:45.955Z,92.90
2018-04-24T22:53:13.595Z,92.90
2018-04-24T22:55:41.189Z,92.70
2018-04-24T22:58:11.406Z,92.80
2018-04-24T23:00:39.818Z,92.80
2018-04-24T23:03:08.124Z,92.60
2018-04-24T23:05:35.718Z,92.60
2018-04-24T23:08:04.110Z,92.50
2018-04-24T23:10:43.643Z,92.40
2018-04-24T23:13:23.995Z,92.50
2018-04-24T23:16:03.461Z,92.90
2018-04-24T23:18:42.828Z,92.50
2018-04-24T23:21:09.848Z,92.50
2018-04-24T23:23:37.400Z,92.70
2018-04-24T23:26:05.796Z,92.60
2018-04-24T23:28:33.443Z,92.60
2018-04-24T23:31:02.012Z,92.50
2018-04-24T23:33:48.257Z,92.70
2018-04-24T23:36:16.577Z,93.00
2018-04-24T23:38:44.098Z,93.00
2018-04-24T23:41:11.710Z,92.90
2018-04-24T23:43:39.240Z,93.20
2018-04-24T23:46:06.798Z,93.40
2018-04-24T23:48:35.273Z,93.50
2018-04-24T23:51:03.580Z,94.00
2018-04-24T23:53:31.108Z,93.70
2018-04-24T23:55:58.643Z,93.80
2018-04-24T23:58:26.176Z,93.70
